Time;durP1;ratioP1;P1;durP2;ratioP2;P2;SDS_P1;SDS_P2;PMS_P1;PMS_P2;Temp;Humidity;BMP_temperature;BMP_pressure;BME280_temperature;BME280_humidity;BME280_pressure;Samples;Min_cycle;Max_cycle;Signal;HPM_P1;HPM_P2
2022/07/17 00:01:13;;;;;;;9.13;4.20;;;;;;;12.54;84.56;102765.63;5028137;28;20140;-78
2022/07/17 00:03:39;;;;;;;8.52;5.43;;;;;;;12.52;84.29;102766.56;5026669;28;20500;-78
2022/07/17 00:06:08;;;;;;;10.63;5.38;;;;;;;12.49;84.18;102756.88;5026065;28;21529;-78
2022/07/17 00:08:34;;;;;;;7.55;5.10;;;;;;;12.46;84.00;102756.94;5026424;28;20041;-78
2022/07/17 00:11:01;;;;;;;5.63;4.35;;;;;;;12.44;84.17;102758.78;5021501;28;20029;-77
2022/07/17 00:13:27;;;;;;;3.50;2.67;;;;;;;12.40;84.30;102762.38;5021510;28;20570;-78
2022/07/17 00:15:52;;;;;;;2.92;2.47;;;;;;;12.39;84.30;102758.88;5026840;28;20033;-78
2022/07/17 00:18:18;;;;;;;4.57;2.40;;;;;;;12.38;84.32;102761.56;5025646;28;20045;-78
2022/07/17 00:20:43;;;;;;;3.72;2.08;;;;;;;12.34;84.17;102761.66;5021083;28;20758;-78
2022/07/17 00:23:10;;;;;;;5.07;2.10;;;;;;;12.31;84.22;102758.19;5009527;28;20037;-78
2022/07/17 00:25:38;;;;;;;2.97;2.10;;;;;;;12.28;84.31;102756.47;5026607;28;20036;-78
2022/07/17 00:28:04;;;;;;;2.50;2.00;;;;;;;12.28;84.46;102764.44;5026371;28;20055;-78
2022/07/17 00:30:30;;;;;;;2.83;2.00;;;;;;;12.27;84.20;102756.50;5027131;28;20025;-77
2022/07/17 00:32:55;;;;;;;4.40;2.60;;;;;;;12.24;84.19;102760.09;5025518;28;20037;-78
2022/07/17 00:35:21;;;;;;;4.22;3.13;;;;;;;12.22;84.24;102752.16;5021106;28;20063;-77
2022/07/17 00:37:48;;;;;;;8.93;4.40;;;;;;;12.20;84.18;102755.78;5026697;28;20037;-77
2022/07/17 00:40:19;;;;;;;8.52;4.65;;;;;;;12.17;84.29;102762.03;5025632;28;20029;-78
2022/07/17 00:42:44;;;;;;;9.35;4.13;;;;;;;12.17;84.33;102761.13;5026613;28;20039;-76
2022/07/17 00:45:10;;;;;;;10.77;5.22;;;;;;;12.14;84.55;102753.25;5026405;28;20033;-78
2022/07/17 00:47:51;;;;;;;8.07;4.70;;;;;;;12.13;85.01;102759.44;5026861;28;20045;-78
2022/07/17 00:50:17;;;;;;;7.95;4.55;;;;;;;12.09;84.23;102748.91;5026692;28;20123;-78
2022/07/17 00:52:43;;;;;;;8.00;3.97;;;;;;;12.07;84.65;102750.72;5025321;28;20095;-78
2022/07/17 00:55:09;;;;;;;9.07;4.55;;;;;;;12.06;84.71;102746.31;5027054;28;20117;-78
2022/07/17 00:57:35;;;;;;;7.35;3.70;;;;;;;12.04;84.40;102748.13;5026798;28;20102;-78
2022/07/17 01:00:01;;;;;;;7.30;3.67;;;;;;;12.03;84.70;102742.78;5020581;28;20087;-77
2022/07/17 01:02:26;;;;;;;6.68;3.60;;;;;;;12.00;84.88;102741.09;5026480;28;20160;-77
2022/07/17 01:04:52;;;;;;;5.25;3.38;;;;;;;11.99;84.91;102739.31;5026288;28;20033;-77
2022/07/17 01:07:18;;;;;;;5.55;3.03;;;;;;;11.98;85.21;102742.03;5026155;28;20037;-78
2022/07/17 01:09:44;;;;;;;4.75;3.10;;;;;;;11.94;84.98;102738.56;5026708;28;20036;-77
2022/07/17 01:12:09;;;;;;;5.35;2.83;;;;;;;11.92;85.00;102735.06;5026789;28;20655;-77
2022/07/17 01:14:35;;;;;;;2.47;2.25;;;;;;;11.90;85.32;102734.22;5026221;28;20056;-78
2022/07/17 01:17:01;;;;;;;3.22;2.20;;;;;;;11.88;85.40;102742.22;5025157;28;20029;-77
2022/07/17 01:19:27;;;;;;;4.57;2.42;;;;;;;11.85;85.84;102738.75;5024703;28;20071;-78
2022/07/17 01:21:52;;;;;;;2.97;1.88;;;;;;;11.82;85.80;102745.88;5025884;28;20053;-77
2022/07/17 01:24:19;;;;;;;3.15;2.50;;;;;;;11.80;86.39;102750.34;5025822;28;20048;-77
2022/07/17 01:26:47;;;;;;;4.07;2.50;;;;;;;11.78;86.47;102749.50;5026360;28;20365;-78
2022/07/17 01:29:14;;;;;;;4.05;2.10;;;;;;;11.76;86.78;102747.81;5026309;28;20034;-78
2022/07/17 01:31:41;;;;;;;3.13;2.13;;;;;;;11.73;87.07;102748.72;5026299;28;20040;-78
2022/07/17 01:34:07;;;;;;;3.80;1.83;;;;;;;11.72;87.17;102743.44;5019476;28;20136;-78
2022/07/17 01:36:33;;;;;;;5.05;1.90;;;;;;;11.71;87.17;102755.81;5025839;28;20465;-78
2022/07/17 01:38:59;;;;;;;3.35;1.83;;;;;;;11.71;87.29;102755.81;5026065;28;20464;-78
2022/07/17 01:41:25;;;;;;;3.60;2.10;;;;;;;11.70;87.11;102756.72;5025898;28;20190;-78
2022/07/17 01:43:50;;;;;;;3.65;1.95;;;;;;;11.69;87.32;102768.25;5025210;28;20072;-78
2022/07/17 01:46:16;;;;;;;2.45;2.00;;;;;;;11.68;87.54;102766.50;5025825;28;20132;-78
2022/07/17 01:48:42;;;;;;;5.65;1.98;;;;;;;11.68;87.47;102770.03;5007551;28;20041;-78
2022/07/17 01:51:07;;;;;;;4.20;1.80;;;;;;;11.67;88.04;102770.94;5036757;28;20047;-77
2022/07/17 01:53:33;;;;;;;3.17;1.88;;;;;;;11.67;87.87;102770.94;5050400;28;20037;-78
2022/07/17 01:55:58;;;;;;;2.88;1.95;;;;;;;11.68;88.07;102769.16;5052842;28;20512;-78
2022/07/17 01:58:24;;;;;;;2.40;1.98;;;;;;;11.68;88.14;102774.47;5031639;28;20059;-77
2022/07/17 02:00:50;;;;;;;4.35;2.20;;;;;;;11.69;88.76;102770.91;5025355;28;20073;-78
2022/07/17 02:03:16;;;;;;;3.08;2.20;;;;;;;11.71;89.38;102771.75;5037550;28;20037;-77
2022/07/17 02:05:42;;;;;;;3.47;2.17;;;;;;;11.71;89.37;102765.59;5033816;28;20116;-78
2022/07/17 02:08:07;;;;;;;3.42;2.30;;;;;;;11.72;89.87;102759.38;5027256;28;20028;-78
2022/07/17 02:10:33;;;;;;;3.92;2.50;;;;;;;11.74;91.28;102755.78;5024765;28;20042;-77
2022/07/17 02:12:59;;;;;;;5.10;2.20;;;;;;;11.80;91.44;102752.13;5024779;28;20079;-78
2022/07/17 02:15:24;;;;;;;3.40;2.10;;;;;;;11.81;90.94;102754.75;5024351;28;20644;-77
2022/07/17 02:17:50;;;;;;;4.18;2.20;;;;;;;11.81;91.31;102760.06;5023592;28;20745;-77
2022/07/17 02:20:16;;;;;;;2.60;2.20;;;;;;;11.80;90.76;102757.44;5023758;28;21471;-78
2022/07/17 02:22:42;;;;;;;4.07;2.50;;;;;;;11.76;90.67;102753.09;5026830;28;20037;-78
2022/07/17 02:25:09;;;;;;;3.55;2.40;;;;;;;11.74;90.86;102755.78;5007673;28;20180;-78
2022/07/17 02:27:35;;;;;;;4.38;2.50;;;;;;;11.75;91.19;102752.22;5028809;28;20432;-78
2022/07/17 02:30:12;;;;;;;3.40;2.25;;;;;;;11.73;91.72;102753.16;5032505;28;20037;-78
2022/07/17 02:32:38;;;;;;;4.80;2.15;;;;;;;11.69;91.88;102755.00;5026174;28;20063;-77
2022/07/17 02:35:05;;;;;;;4.22;2.65;;;;;;;11.67;91.82;102749.69;5042683;28;20128;-78
2022/07/17 02:37:30;;;;;;;3.88;2.40;;;;;;;11.65;91.88;102745.31;5043016;28;20484;-77
2022/07/17 02:39:56;;;;;;;3.47;2.10;;;;;;;11.64;91.49;102751.53;5026965;28;20024;-78
2022/07/17 02:42:23;;;;;;;2.33;2.13;;;;;;;11.62;91.75;102750.72;5032368;28;20041;-78
2022/07/17 02:44:49;;;;;;;3.20;2.60;;;;;;;11.61;92.45;102759.56;5009743;28;20040;-77
2022/07/17 02:47:29;;;;;;;4.18;2.13;;;;;;;11.59;92.90;102769.34;5030664;28;20032;-78
2022/07/17 02:49:55;;;;;;;4.07;2.45;;;;;;;11.60;92.97;102771.09;5010060;28;20478;-78
2022/07/17 02:52:21;;;;;;;6.00;2.20;;;;;;;11.57;93.24;102764.06;4993663;28;20029;-78
2022/07/17 02:54:47;;;;;;;4.35;2.08;;;;;;;11.54;92.67;102778.25;5025949;28;20175;-78
2022/07/17 02:57:13;;;;;;;3.30;2.22;;;;;;;11.54;92.56;102770.31;5032344;28;20052;-78
2022/07/17 02:59:39;;;;;;;3.28;2.30;;;;;;;11.53;92.97;102773.88;5032773;28;20112;-79
2022/07/17 03:02:04;;;;;;;4.72;2.20;;;;;;;11.54;93.12;102772.97;5029721;28;20039;-78
2022/07/17 03:04:30;;;;;;;3.80;2.20;;;;;;;11.54;92.86;102769.41;5030904;28;20033;-78
2022/07/17 03:06:56;;;;;;;3.70;2.13;;;;;;;11.55;93.17;102766.75;5031563;28;20107;-78
2022/07/17 03:09:21;;;;;;;3.47;2.42;;;;;;;11.56;93.27;102767.63;5030050;28;20487;-77
2022/07/17 03:11:47;;;;;;;3.65;2.38;;;;;;;11.57;93.36;102765.84;5041854;28;20045;-77
2022/07/17 03:14:12;;;;;;;2.95;1.98;;;;;;;11.58;93.92;102760.50;5033398;28;20098;-78
2022/07/17 03:16:38;;;;;;;4.45;2.28;;;;;;;11.61;94.62;102763.09;5032206;28;20042;-77
2022/07/17 03:19:03;;;;;;;3.17;2.30;;;;;;;11.68;95.01;102775.31;4993681;28;20022;-79
2022/07/17 03:21:29;;;;;;;2.92;2.47;;;;;;;11.69;95.29;102776.22;5031240;28;20060;-77
2022/07/17 03:23:55;;;;;;;3.30;2.40;;;;;;;11.71;95.31;102778.84;5031133;28;20030;-77
2022/07/17 03:26:20;;;;;;;3.13;2.40;;;;;;;11.71;94.92;102773.53;5031961;28;20045;-77
2022/07/17 03:28:46;;;;;;;5.00;2.10;;;;;;;11.71;94.60;102769.09;5032637;28;20239;-78
2022/07/17 03:31:11;;;;;;;3.60;1.95;;;;;;;11.71;94.49;102774.41;5013469;28;20025;-78
2022/07/17 03:33:37;;;;;;;3.10;1.75;;;;;;;11.74;94.57;102763.75;5030151;28;20029;-78
2022/07/17 03:36:02;;;;;;;3.88;2.40;;;;;;;11.74;94.32;102766.41;5031953;28;20036;-78
2022/07/17 03:38:28;;;;;;;3.47;2.22;;;;;;;11.78;94.91;102769.84;5029358;28;20033;-78
2022/07/17 03:40:54;;;;;;;3.03;2.25;;;;;;;11.85;95.78;102775.91;5027974;28;20040;-78
2022/07/17 03:43:19;;;;;;;3.22;2.20;;;;;;;11.87;95.45;102771.47;5027124;28;20032;-78
2022/07/17 03:45:45;;;;;;;3.22;2.00;;;;;;;11.87;95.30;102763.50;5027473;28;20040;-77
2022/07/17 03:48:10;;;;;;;5.03;2.10;;;;;;;11.90;95.80;102752.81;5029232;28;20522;-78
2022/07/17 03:50:36;;;;;;;4.00;2.30;;;;;;;11.95;96.64;102748.28;5010214;28;20034;-78
2022/07/17 03:53:01;;;;;;;4.72;2.20;;;;;;;12.01;96.90;102748.16;5028302;28;20033;-78
2022/07/17 03:55:27;;;;;;;3.88;2.15;;;;;;;12.06;97.71;102758.72;5028392;28;20041;-78
2022/07/17 03:57:53;;;;;;;3.15;2.13;;;;;;;12.09;97.87;102770.13;5027838;28;20079;-78
2022/07/17 04:00:18;;;;;;;4.53;2.15;;;;;;;12.06;97.68;102762.25;5027250;28;20052;-78
2022/07/17 04:02:49;;;;;;;2.72;2.20;;;;;;;12.07;97.59;102769.31;5010715;28;20029;-77
2022/07/17 04:05:15;;;;;;;5.78;2.35;;;;;;;12.07;97.80;102764.00;5027941;28;20503;-78
2022/07/17 04:07:41;;;;;;;2.90;2.25;;;;;;;12.09;98.23;102754.22;5021598;28;20048;-78
2022/07/17 04:10:08;;;;;;;4.35;1.90;;;;;;;12.12;98.27;102757.69;5028631;28;20203;-78
2022/07/17 04:12:34;;;;;;;3.38;2.15;;;;;;;12.15;98.54;102768.25;5026967;28;20663;-78
2022/07/17 04:15:00;;;;;;;1.95;1.75;;;;;;;12.16;98.02;102770.88;5027679;28;20498;-78
2022/07/17 04:17:25;;;;;;;1.80;1.70;;;;;;;12.17;97.85;102777.94;5026844;28;20041;-78
2022/07/17 04:19:51;;;;;;;4.07;2.22;;;;;;;12.21;98.15;102757.50;5026280;28;20562;-79
2022/07/17 04:22:17;;;;;;;2.83;2.10;;;;;;;12.26;98.01;102760.06;5021323;28;20499;-78
2022/07/17 04:24:43;;;;;;;4.10;2.15;;;;;;;12.28;98.35;102760.88;5022758;28;20034;-78
2022/07/17 04:27:09;;;;;;;2.10;1.95;;;;;;;12.33;98.45;102762.53;5027405;28;20041;-78
2022/07/17 04:29:35;;;;;;;5.65;1.90;;;;;;;12.39;98.33;102753.56;5028237;28;20397;-78
2022/07/17 04:32:04;;;;;;;1.90;1.50;;;;;;;12.46;98.26;102763.16;5025950;28;20589;-78
2022/07/17 04:34:30;;;;;;;2.10;1.48;;;;;;;12.48;97.19;102771.09;5027390;28;20064;-78
2022/07/17 04:36:55;;;;;;;1.60;1.50;;;;;;;12.52;96.82;102772.75;5027807;28;20129;-78
2022/07/17 04:39:23;;;;;;;1.75;1.42;;;;;;;12.55;96.44;102778.00;5021614;28;20029;-78
2022/07/17 04:41:49;;;;;;;3.00;1.40;;;;;;;12.58;96.21;102777.91;5027146;28;20100;-78
2022/07/17 04:44:14;;;;;;;1.45;1.35;;;;;;;12.63;95.87;102780.47;5021649;28;20037;-78
2022/07/17 04:46:40;;;;;;;2.53;1.30;;;;;;;12.67;95.74;102771.53;5026908;28;20685;-77
2022/07/17 04:49:05;;;;;;;1.67;1.25;;;;;;;12.71;95.38;102767.91;5027386;28;20122;-77
2022/07/17 04:51:31;;;;;;;1.60;1.50;;;;;;;12.76;95.01;102768.63;5028025;28;20040;-78
2022/07/17 04:53:56;;;;;;;1.88;1.60;;;;;;;12.79;94.74;102774.81;5027127;28;20075;-78
2022/07/17 04:56:22;;;;;;;3.03;2.00;;;;;;;12.82;94.85;102778.25;5025874;28;20048;-78
2022/07/17 04:58:47;;;;;;;2.47;1.63;;;;;;;12.85;94.93;102774.66;5037477;28;20030;-77
2022/07/17 05:01:13;;;;;;;5.88;1.65;;;;;;;12.88;94.69;102777.22;5044583;28;20036;-78
2022/07/17 05:03:38;;;;;;;3.58;1.65;;;;;;;12.92;94.35;102796.63;5056325;28;20450;-78
2022/07/17 05:06:05;;;;;;;2.85;1.38;;;;;;;12.93;94.37;102796.59;5032580;28;20029;-78
2022/07/17 05:08:30;;;;;;;2.78;1.70;;;;;;;12.93;93.65;102788.63;5020600;28;20056;-78
2022/07/17 05:10:56;;;;;;;3.42;1.80;;;;;;;12.96;93.67;102783.22;5027187;28;20132;-78
2022/07/17 05:13:22;;;;;;;3.17;2.08;;;;;;;12.98;93.47;102783.19;5027895;28;20506;-78
2022/07/17 05:15:49;;;;;;;3.65;1.85;;;;;;;13.02;93.56;102793.72;5025544;28;20069;-78
2022/07/17 05:18:15;;;;;;;4.13;1.80;;;;;;;13.07;94.05;102790.06;5026657;28;20037;-78
2022/07/17 05:20:41;;;;;;;4.30;2.13;;;;;;;13.12;93.90;102810.31;5004033;28;20512;-78
2022/07/17 05:23:07;;;;;;;3.08;2.10;;;;;;;13.13;94.07;102804.06;5026681;28;20123;-78
2022/07/17 05:25:32;;;;;;;2.70;1.80;;;;;;;13.16;93.98;102801.34;5026454;28;20556;-78
2022/07/17 05:27:58;;;;;;;6.68;2.15;;;;;;;13.20;94.25;102801.25;5026681;28;20128;-78
2022/07/17 05:30:23;;;;;;;5.75;2.17;;;;;;;13.23;94.75;102793.22;5026039;28;20753;-78
2022/07/17 05:32:49;;;;;;;6.15;2.10;;;;;;;13.27;94.45;102789.56;5026214;28;20653;-78
2022/07/17 05:35:14;;;;;;;3.85;2.30;;;;;;;13.31;94.98;102789.44;5026957;28;20033;-78
2022/07/17 05:37:40;;;;;;;2.60;2.30;;;;;;;13.35;94.85;102792.88;5026138;28;20132;-78
2022/07/17 05:40:06;;;;;;;4.88;2.67;;;;;;;13.40;95.15;102787.47;5026445;28;20080;-78
2022/07/17 05:42:31;;;;;;;2.92;1.90;;;;;;;13.48;95.42;102796.16;5025890;28;20136;-78
2022/07/17 05:44:58;;;;;;;4.20;2.40;;;;;;;13.55;95.22;102802.16;5025081;28;20037;-78
2022/07/17 05:47:24;;;;;;;3.20;1.95;;;;;;;13.61;95.56;102812.63;5024200;28;20049;-78
2022/07/17 05:49:50;;;;;;;2.25;1.90;;;;;;;13.66;95.28;102809.84;5025279;28;21424;-77
2022/07/17 05:52:15;;;;;;;3.67;2.00;;;;;;;13.69;95.07;102813.28;5024624;28;20052;-78
2022/07/17 05:54:41;;;;;;;4.05;1.85;;;;;;;13.78;95.52;102819.31;4986597;28;20127;-77
2022/07/17 05:57:06;;;;;;;2.17;1.70;;;;;;;13.85;95.04;102816.41;5026164;28;20037;-78
2022/07/17 05:59:32;;;;;;;3.90;1.92;;;;;;;13.96;95.29;102817.91;5025948;28;20644;-78
2022/07/17 06:01:57;;;;;;;1.85;1.65;;;;;;;14.07;95.17;102815.84;5026102;28;20036;-78
2022/07/17 06:04:23;;;;;;;1.67;1.33;;;;;;;14.20;94.53;102824.31;5026130;28;20048;-78
2022/07/17 06:06:49;;;;;;;3.38;2.03;;;;;;;14.30;93.95;102827.59;5025616;28;20032;-78
2022/07/17 06:09:15;;;;;;;3.20;1.75;;;;;;;14.40;93.33;102820.19;5025254;28;20040;-78
2022/07/17 06:11:41;;;;;;;2.90;1.40;;;;;;;14.49;92.62;102817.25;5025885;28;20083;-78
2022/07/17 06:14:06;;;;;;;4.20;1.45;;;;;;;14.60;92.31;102813.38;5025867;28;20037;-78
2022/07/17 06:16:32;;;;;;;3.05;1.70;;;;;;;14.69;91.62;102812.19;5025899;28;20164;-78
2022/07/17 06:18:57;;;;;;;1.90;1.65;;;;;;;14.77;91.75;102816.41;5024584;28;20033;-78
2022/07/17 06:21:23;;;;;;;2.20;1.75;;;;;;;14.85;91.88;102823.28;5025754;28;20056;-78
2022/07/17 06:23:48;;;;;;;2.17;1.63;;;;;;;14.95;92.24;102819.41;5024550;28;20048;-78
2022/07/17 06:26:14;;;;;;;3.33;1.80;;;;;;;15.07;92.31;102813.69;5024222;28;20033;-78
2022/07/17 06:28:39;;;;;;;2.35;1.85;;;;;;;15.20;91.94;102818.59;5025714;28;20915;-78
2022/07/17 06:31:05;;;;;;;4.45;2.10;;;;;;;15.34;91.34;102819.00;5024556;28;20129;-78
2022/07/17 06:33:30;;;;;;;3.35;1.80;;;;;;;15.53;91.16;102825.50;5025520;28;20397;-79
2022/07/17 06:35:56;;;;;;;3.63;1.95;;;;;;;15.79;91.29;102826.38;5025969;28;20125;-78
2022/07/17 06:38:22;;;;;;;4.78;1.65;;;;;;;16.02;90.60;102826.41;5025572;28;20117;-78
2022/07/17 06:40:47;;;;;;;4.55;1.95;;;;;;;16.17;89.86;102821.41;5025679;28;20041;-79
2022/07/17 06:43:13;;;;;;;1.45;1.20;;;;;;;16.24;88.91;102832.75;5026168;28;20183;-78
2022/07/17 06:45:38;;;;;;;2.15;1.38;;;;;;;16.35;88.60;102832.34;5025513;28;20096;-78
2022/07/17 06:48:04;;;;;;;2.70;1.48;;;;;;;16.42;88.18;102829.41;5023920;28;20144;-78
2022/07/17 06:50:30;;;;;;;2.40;1.50;;;;;;;16.49;87.84;102815.75;5026223;28;20037;-78
2022/07/17 06:52:55;;;;;;;2.65;1.50;;;;;;;16.51;87.84;102809.44;5018775;28;20039;-78
2022/07/17 06:55:21;;;;;;;1.38;1.25;;;;;;;16.56;87.67;102817.25;5024865;28;20029;-78
2022/07/17 06:57:46;;;;;;;1.08;1.00;;;;;;;16.63;87.19;102824.13;5024282;28;20099;-78
2022/07/17 07:00:12;;;;;;;1.38;1.00;;;;;;;16.66;86.71;102815.09;5024107;28;20032;-78
2022/07/17 07:02:38;;;;;;;1.17;1.08;;;;;;;16.69;85.92;102820.34;5024928;28;20029;-79
2022/07/17 07:05:04;;;;;;;2.90;1.00;;;;;;;16.73;84.75;102818.41;5025571;28;20033;-78
2022/07/17 07:07:30;;;;;;;1.25;0.82;;;;;;;16.77;85.01;102822.72;5025100;28;20110;-78
2022/07/17 07:09:55;;;;;;;2.97;0.85;;;;;;;16.78;83.53;102817.28;5025083;28;20029;-78
2022/07/17 07:12:21;;;;;;;2.17;0.80;;;;;;;16.81;83.92;102817.16;5003211;28;20145;-78
2022/07/17 07:14:47;;;;;;;5.00;1.23;;;;;;;16.90;83.55;102818.59;5025865;28;20040;-78
2022/07/17 07:17:12;;;;;;;0.88;0.73;;;;;;;17.01;83.33;102817.28;5029434;28;20037;-79
2022/07/17 07:19:38;;;;;;;2.25;0.80;;;;;;;17.14;82.79;102821.22;5029923;28;20034;-78
2022/07/17 07:22:03;;;;;;;0.50;0.50;;;;;;;17.37;82.79;102819.34;5028931;28;20129;-79
2022/07/17 07:24:29;;;;;;;0.50;0.50;;;;;;;17.57;80.79;102820.28;5028268;28;20112;-79
2022/07/17 07:26:54;;;;;;;0.60;0.50;;;;;;;17.78;80.59;102824.69;5029505;28;20037;-78
2022/07/17 07:29:20;;;;;;;1.80;0.88;;;;;;;18.02;80.39;102821.84;5010924;28;20052;-79
2022/07/17 07:31:47;;;;;;;1.67;0.65;;;;;;;18.25;79.02;102821.75;5029102;28;20076;-79
2022/07/17 07:34:13;;;;;;;1.55;0.73;;;;;;;18.52;78.83;102824.94;5007056;28;20018;-78
2022/07/17 07:36:39;;;;;;;1.15;0.68;;;;;;;18.65;77.61;102824.34;5026904;28;20573;-79
2022/07/17 07:39:04;;;;;;;1.27;0.70;;;;;;;18.72;74.00;102831.13;5028728;28;20056;-79
2022/07/17 07:41:30;;;;;;;0.73;0.70;;;;;;;18.83;75.15;102831.50;5029202;28;20036;-81
2022/07/17 07:43:55;;;;;;;0.60;0.60;;;;;;;18.93;75.93;102831.91;5026996;28;20034;-78
2022/07/17 07:46:21;;;;;;;0.63;0.50;;;;;;;19.22;75.84;102829.59;5028669;28;20503;-78
2022/07/17 07:48:46;;;;;;;0.82;0.60;;;;;;;19.49;75.26;102828.25;5028048;28;20469;-79
2022/07/17 07:51:12;;;;;;;1.63;0.75;;;;;;;19.73;74.59;102825.22;5028776;28;20021;-79
2022/07/17 07:53:38;;;;;;;2.30;0.98;;;;;;;19.89;72.54;102827.97;5028823;28;20032;-80
2022/07/17 07:56:04;;;;;;;1.17;0.63;;;;;;;20.02;72.60;102830.88;5028198;28;20029;-79
2022/07/17 07:58:30;;;;;;;1.70;0.60;;;;;;;20.06;72.14;102824.38;5028272;28;20047;-79
2022/07/17 08:00:55;;;;;;;2.42;0.80;;;;;;;20.15;71.36;102829.25;5027657;28;20060;-80
2022/07/17 08:03:21;;;;;;;4.13;0.98;;;;;;;20.13;70.50;102824.91;5013923;28;20729;-78
2022/07/17 08:05:47;;;;;;;3.13;0.80;;;;;;;20.30;71.82;102818.59;5035664;28;20033;-78
2022/07/17 08:08:12;;;;;;;6.15;0.70;;;;;;;20.52;71.53;102825.47;5051606;28;20041;-78
2022/07/17 08:10:38;;;;;;;1.63;0.60;;;;;;;20.70;70.43;102826.25;5047183;28;20537;-79
2022/07/17 08:13:03;;;;;;;1.70;0.63;;;;;;;20.75;68.74;102826.81;5010877;28;21029;-78
2022/07/17 08:15:29;;;;;;;0.98;0.80;;;;;;;20.70;68.06;102824.41;5032991;28;20128;-80
2022/07/17 08:17:55;;;;;;;1.73;0.80;;;;;;;20.77;69.44;102833.84;5028104;28;20033;-78
2022/07/17 08:20:21;;;;;;;0.65;0.60;;;;;;;20.95;69.38;102839.16;5028369;28;20106;-78
2022/07/17 08:22:48;;;;;;;0.95;0.50;;;;;;;21.16;69.08;102837.03;5005995;28;20032;-80
2022/07/17 08:25:15;;;;;;;2.60;0.63;;;;;;;21.34;68.88;102849.50;5027482;28;20190;-80
2022/07/17 08:27:42;;;;;;;0.63;0.50;;;;;;;21.35;65.90;102848.53;5009579;28;20122;-80
2022/07/17 08:30:10;;;;;;;0.60;0.52;;;;;;;21.36;67.43;102839.50;5027142;28;20454;-79
2022/07/17 08:32:36;;;;;;;0.55;0.55;;;;;;;21.29;66.95;102837.16;5005134;28;20660;-79
2022/07/17 08:35:03;;;;;;;1.48;0.68;;;;;;;21.38;67.22;102834.88;5028146;28;20041;-79
2022/07/17 08:37:29;;;;;;;1.40;0.50;;;;;;;21.50;65.14;102834.13;5027791;28;20028;-79
2022/07/17 08:39:54;;;;;;;0.68;0.65;;;;;;;21.43;65.80;102827.38;5027147;28;20029;-78
2022/07/17 08:42:20;;;;;;;2.42;0.60;;;;;;;21.53;65.54;102833.09;5027448;28;20103;-80
2022/07/17 08:44:46;;;;;;;1.77;0.65;;;;;;;21.61;65.77;102838.00;5026795;28;21537;-77
2022/07/17 08:47:13;;;;;;;1.27;0.80;;;;;;;21.57;64.74;102838.19;5025471;28;20038;-78
2022/07/17 08:49:44;;;;;;;0.57;0.50;;;;;;;21.72;66.49;102835.53;5026664;28;20039;-77
2022/07/17 08:52:10;;;;;;;2.45;0.80;;;;;;;21.87;66.37;102830.16;5022252;28;20036;-79
2022/07/17 08:54:36;;;;;;;0.68;0.50;;;;;;;21.96;66.12;102825.03;5004753;28;20515;-78
2022/07/17 08:57:03;;;;;;;1.00;0.52;;;;;;;22.20;66.71;102829.84;5021306;28;20037;-78
2022/07/17 08:59:29;;;;;;;0.70;0.60;;;;;;;22.41;65.83;102832.13;5005025;28;20432;-78
2022/07/17 09:01:55;;;;;;;1.73;0.60;;;;;;;22.34;59.58;102833.50;5026721;28;20149;-80
2022/07/17 09:04:21;;;;;;;0.50;0.50;;;;;;;22.31;62.80;102839.94;5009293;28;20475;-78
2022/07/17 09:06:58;;;;;;;0.57;0.47;;;;;;;22.22;63.37;102833.31;5024989;28;20045;-79
2022/07/17 09:09:23;;;;;;;1.33;0.60;;;;;;;22.23;66.21;102835.03;5026570;28;20072;-78
2022/07/17 09:11:50;;;;;;;1.80;0.70;;;;;;;22.38;66.29;102829.63;5027021;28;20213;-80
2022/07/17 09:14:17;;;;;;;0.55;0.55;;;;;;;22.65;66.84;102826.97;5025705;28;20119;-79
2022/07/17 09:16:53;;;;;;;1.35;0.82;;;;;;;22.86;65.32;102831.03;5026724;28;20064;-78
2022/07/17 09:19:35;;;;;;;1.02;0.60;;;;;;;22.76;63.77;102818.16;5024768;28;20419;-78
2022/07/17 09:22:07;;;;;;;1.83;0.90;;;;;;;22.64;65.68;102819.88;5026700;28;20080;-79
2022/07/17 09:24:42;;;;;;;;;;;;;;;22.63;61.74;102822.66;5026816;28;20036;-79
2022/07/17 09:27:08;;;;;;;0.90;0.68;;;;;;;22.75;65.61;102815.56;5025324;28;19925;-77
2022/07/17 09:29:34;;;;;;;1.63;0.80;;;;;;;22.72;65.12;102810.38;5026580;28;20046;-78
2022/07/17 09:32:00;;;;;;;0.63;0.55;;;;;;;22.82;65.49;102816.03;5025914;28;20037;-79
2022/07/17 09:34:26;;;;;;;1.30;0.70;;;;;;;22.89;64.60;102812.81;5027071;28;20470;-79
2022/07/17 09:37:01;;;;;;;1.23;0.80;;;;;;;23.01;61.15;102804.84;5003301;28;20061;-80
2022/07/17 09:39:37;;;;;;;0.98;0.60;;;;;;;23.05;62.38;102809.09;5026417;28;20718;-78
2022/07/17 09:42:03;;;;;;;1.13;0.60;;;;;;;23.14;62.73;102807.56;5027431;28;20558;-77
2022/07/17 09:44:29;;;;;;;0.80;0.65;;;;;;;23.11;61.64;102807.78;5027508;28;20035;-77
2022/07/17 09:46:55;;;;;;;2.25;0.73;;;;;;;23.22;61.23;102812.44;5025973;28;20535;-78
2022/07/17 09:49:23;;;;;;;0.65;0.60;;;;;;;23.35;61.49;102807.97;5024639;28;20029;-78
2022/07/17 09:51:49;;;;;;;0.93;0.63;;;;;;;23.40;60.34;102796.81;5003348;28;20033;-79
2022/07/17 09:54:15;;;;;;;0.80;0.80;;;;;;;23.45;60.23;102806.34;5026327;28;20032;-78
2022/07/17 09:56:40;;;;;;;1.88;0.90;;;;;;;23.58;59.26;102802.78;5003487;28;20042;-80
2022/07/17 09:59:08;;;;;;;2.88;0.70;;;;;;;23.55;57.06;102803.88;5026384;28;21777;-79
2022/07/17 10:01:35;;;;;;;0.52;0.50;;;;;;;23.51;57.39;102796.06;5024242;28;20028;-78
2022/07/17 10:04:01;;;;;;;1.42;0.75;;;;;;;23.22;56.47;102801.66;5024942;28;20683;-77
2022/07/17 10:06:27;;;;;;;1.45;0.80;;;;;;;23.04;57.29;102797.41;5008876;28;20033;-77
2022/07/17 10:08:54;;;;;;;1.05;0.73;;;;;;;22.98;55.84;102791.56;5019337;28;20041;-77
2022/07/17 10:11:21;;;;;;;0.73;0.70;;;;;;;22.90;56.76;102803.75;5019721;28;20037;-78
2022/07/17 10:13:48;;;;;;;1.05;0.60;;;;;;;22.79;58.14;102796.34;5025188;28;20487;-77
2022/07/17 10:16:14;;;;;;;1.83;0.70;;;;;;;22.89;58.73;102796.59;5019408;28;21433;-79
2022/07/17 10:18:44;;;;;;;2.65;0.80;;;;;;;23.12;58.16;102799.59;5024475;28;20029;-77
2022/07/17 10:21:16;;;;;;;0.63;0.60;;;;;;;23.32;57.75;102802.78;5026093;28;20102;-76
2022/07/17 10:23:46;;;;;;;1.40;0.88;;;;;;;23.37;57.24;102808.72;5026131;28;20101;-79
2022/07/17 10:26:13;;;;;;;1.58;0.90;;;;;;;23.35;57.43;102802.56;5020214;28;20514;-79
2022/07/17 10:28:44;;;;;;;1.45;0.80;;;;;;;23.34;57.72;102806.22;5025266;28;20080;-77
2022/07/17 10:31:24;;;;;;;4.47;0.90;;;;;;;23.45;57.36;102814.47;5025424;28;20467;-77
2022/07/17 10:34:01;;;;;;;1.85;0.95;;;;;;;23.42;57.27;102809.25;5023832;28;20037;-77
2022/07/17 10:36:39;;;;;;;0.90;0.63;;;;;;;23.48;55.56;102812.50;5023999;28;20095;-78
2022/07/17 10:39:20;;;;;;;2.80;0.85;;;;;;;23.51;54.63;102809.59;5036474;28;20035;-77
2022/07/17 10:42:00;;;;;;;2.25;0.70;;;;;;;23.46;54.04;102810.78;5024058;28;20472;-79
2022/07/17 10:44:27;;;;;;;0.60;0.60;;;;;;;23.33;55.40;102812.63;5025205;28;20546;-79
2022/07/17 10:46:54;;;;;;;1.15;0.80;;;;;;;23.07;55.98;102799.03;5020383;28;20097;-77
2022/07/17 10:49:20;;;;;;;2.03;0.82;;;;;;;23.01;56.27;102799.44;5028614;28;20033;-78
2022/07/17 10:51:46;;;;;;;0.70;0.65;;;;;;;22.98;56.86;102796.97;5029384;28;20032;-78
2022/07/17 10:54:12;;;;;;;0.75;0.60;;;;;;;23.08;56.49;102794.50;5023814;28;20136;-79
2022/07/17 10:56:41;;;;;;;1.48;0.90;;;;;;;23.00;55.79;102795.91;5030359;28;20044;-80
2022/07/17 10:59:07;;;;;;;1.15;0.73;;;;;;;22.93;57.07;102787.34;5031892;28;20029;-77
2022/07/17 11:01:32;;;;;;;1.15;0.88;;;;;;;22.97;56.32;102800.63;5038961;28;20021;-77
2022/07/17 11:04:00;;;;;;;1.45;0.70;;;;;;;23.12;56.65;102798.72;5047186;28;20021;-76
2022/07/17 11:06:33;;;;;;;2.53;0.90;;;;;;;23.25;56.50;102807.69;5050333;28;20029;-78
2022/07/17 11:09:03;;;;;;;1.60;0.88;;;;;;;23.33;56.31;102808.06;5034217;28;20037;-78
2022/07/17 11:11:38;;;;;;;2.00;1.00;;;;;;;23.45;55.18;102811.75;5030119;28;20033;-77
2022/07/17 11:14:18;;;;;;;1.50;1.00;;;;;;;23.49;55.12;102814.25;5030006;28;20037;-78
2022/07/17 11:16:45;;;;;;;1.92;0.90;;;;;;;23.48;55.53;102813.41;5029767;28;20036;-79
2022/07/17 11:19:10;;;;;;;1.00;0.82;;;;;;;23.30;55.12;102807.41;5024660;28;20033;-79
2022/07/17 11:21:46;;;;;;;2.25;0.82;;;;;;;23.27;54.17;102810.31;5022991;28;20060;-79